sensor_id;sensor_type;location;lat;lon;timestamp;temperature;humidity
360;DHT22;168;48.872;9.226;2022-08-03T00:02:17;21.80;82.90
360;DHT22;168;48.872;9.226;2022-08-03T00:04:44;21.80;82.90
360;DHT22;168;48.872;9.226;2022-08-03T00:07:12;21.80;83.00
360;DHT22;168;48.872;9.226;2022-08-03T00:09:39;21.70;83.10
360;DHT22;168;48.872;9.226;2022-08-03T00:12:07;21.70;83.10
360;DHT22;168;48.872;9.226;2022-08-03T00:14:35;21.70;83.30
360;DHT22;168;48.872;9.226;2022-08-03T00:17:04;21.60;83.50
360;DHT22;168;48.872;9.226;2022-08-03T00:19:31;21.60;83.70
360;DHT22;168;48.872;9.226;2022-08-03T00:21:58;21.60;83.80
360;DHT22;168;48.872;9.226;2022-08-03T00:24:26;21.50;83.90
360;DHT22;168;48.872;9.226;2022-08-03T00:26:53;21.50;84.10
360;DHT22;168;48.872;9.226;2022-08-03T00:29:21;21.50;84.10
360;DHT22;168;48.872;9.226;2022-08-03T00:31:48;21.50;84.20
360;DHT22;168;48.872;9.226;2022-08-03T00:34:17;21.40;84.30
360;DHT22;168;48.872;9.226;2022-08-03T00:36:44;21.40;84.50
360;DHT22;168;48.872;9.226;2022-08-03T00:39:11;21.50;84.40
360;DHT22;168;48.872;9.226;2022-08-03T00:41:39;21.40;84.40
360;DHT22;168;48.872;9.226;2022-08-03T00:44:06;21.40;84.60
360;DHT22;168;48.872;9.226;2022-08-03T00:46:34;21.30;84.80
360;DHT22;168;48.872;9.226;2022-08-03T00:49:01;21.30;85.00
360;DHT22;168;48.872;9.226;2022-08-03T00:51:30;21.30;85.00
360;DHT22;168;48.872;9.226;2022-08-03T00:54:14;21.30;85.10
360;DHT22;168;48.872;9.226;2022-08-03T00:56:42;21.20;85.20
360;DHT22;168;48.872;9.226;2022-08-03T00:59:10;21.10;85.30
360;DHT22;168;48.872;9.226;2022-08-03T01:01:37;21.10;85.50
360;DHT22;168;48.872;9.226;2022-08-03T01:04:05;21.00;85.50
360;DHT22;168;48.872;9.226;2022-08-03T01:06:42;21.00;85.60
360;DHT22;168;48.872;9.226;2022-08-03T01:09:20;21.10;85.80
360;DHT22;168;48.872;9.226;2022-08-03T01:11:53;21.10;85.70
360;DHT22;168;48.872;9.226;2022-08-03T01:14:26;21.10;85.80
360;DHT22;168;48.872;9.226;2022-08-03T01:16:59;21.10;85.80
360;DHT22;168;48.872;9.226;2022-08-03T01:19:39;21.10;85.80
360;DHT22;168;48.872;9.226;2022-08-03T01:22:22;21.00;85.90
360;DHT22;168;48.872;9.226;2022-08-03T01:25:01;20.90;86.00
360;DHT22;168;48.872;9.226;2022-08-03T01:27:36;20.90;86.00
360;DHT22;168;48.872;9.226;2022-08-03T01:30:09;20.90;86.00
360;DHT22;168;48.872;9.226;2022-08-03T01:32:41;20.80;86.00
360;DHT22;168;48.872;9.226;2022-08-03T01:35:15;20.80;86.00
360;DHT22;168;48.872;9.226;2022-08-03T01:37:46;20.80;86.10
360;DHT22;168;48.872;9.226;2022-08-03T01:40:16;20.80;86.10
360;DHT22;168;48.872;9.226;2022-08-03T01:42:46;20.80;86.00
360;DHT22;168;48.872;9.226;2022-08-03T01:45:17;20.80;86.00
360;DHT22;168;48.872;9.226;2022-08-03T01:47:46;20.70;86.10
360;DHT22;168;48.872;9.226;2022-08-03T01:50:17;20.70;86.10
360;DHT22;168;48.872;9.226;2022-08-03T01:52:46;20.70;86.10
360;DHT22;168;48.872;9.226;2022-08-03T01:55:17;20.70;86.10
360;DHT22;168;48.872;9.226;2022-08-03T01:57:46;20.70;86.10
360;DHT22;168;48.872;9.226;2022-08-03T02:00:16;20.60;86.10
360;DHT22;168;48.872;9.226;2022-08-03T02:02:46;20.60;86.30
360;DHT22;168;48.872;9.226;2022-08-03T02:05:16;20.60;86.40
360;DHT22;168;48.872;9.226;2022-08-03T02:07:47;20.60;86.40
360;DHT22;168;48.872;9.226;2022-08-03T02:10:18;20.50;86.60
360;DHT22;168;48.872;9.226;2022-08-03T02:12:47;20.50;86.70
360;DHT22;168;48.872;9.226;2022-08-03T02:15:17;20.50;86.80
360;DHT22;168;48.872;9.226;2022-08-03T02:17:46;20.40;86.90
360;DHT22;168;48.872;9.226;2022-08-03T02:20:15;20.40;87.00
360;DHT22;168;48.872;9.226;2022-08-03T02:22:44;20.30;87.10
360;DHT22;168;48.872;9.226;2022-08-03T02:25:14;20.30;87.30
360;DHT22;168;48.872;9.226;2022-08-03T02:27:50;20.30;87.30
360;DHT22;168;48.872;9.226;2022-08-03T02:30:21;20.30;87.40
360;DHT22;168;48.872;9.226;2022-08-03T02:32:54;20.30;87.40
360;DHT22;168;48.872;9.226;2022-08-03T02:35:24;20.30;87.50
360;DHT22;168;48.872;9.226;2022-08-03T02:37:56;20.20;87.60
360;DHT22;168;48.872;9.226;2022-08-03T02:40:27;20.20;87.60
360;DHT22;168;48.872;9.226;2022-08-03T02:42:59;20.20;87.60
360;DHT22;168;48.872;9.226;2022-08-03T02:45:28;20.10;87.70
360;DHT22;168;48.872;9.226;2022-08-03T02:48:02;20.10;87.90
360;DHT22;168;48.872;9.226;2022-08-03T02:50:32;20.10;88.00
360;DHT22;168;48.872;9.226;2022-08-03T02:53:02;20.10;88.00
360;DHT22;168;48.872;9.226;2022-08-03T02:55:33;20.00;88.10
360;DHT22;168;48.872;9.226;2022-08-03T02:58:02;20.00;88.20
360;DHT22;168;48.872;9.226;2022-08-03T03:00:32;20.00;88.30
360;DHT22;168;48.872;9.226;2022-08-03T03:03:01;19.90;88.30
360;DHT22;168;48.872;9.226;2022-08-03T03:05:31;19.90;88.40
360;DHT22;168;48.872;9.226;2022-08-03T03:07:59;19.90;88.50
360;DHT22;168;48.872;9.226;2022-08-03T03:10:27;19.90;88.50
360;DHT22;168;48.872;9.226;2022-08-03T03:12:56;19.80;88.60
360;DHT22;168;48.872;9.226;2022-08-03T03:15:25;19.80;88.70
360;DHT22;168;48.872;9.226;2022-08-03T03:17:54;19.80;88.70
360;DHT22;168;48.872;9.226;2022-08-03T03:20:23;19.80;88.70
360;DHT22;168;48.872;9.226;2022-08-03T03:22:51;19.80;88.80
360;DHT22;168;48.872;9.226;2022-08-03T03:25:19;19.80;88.90
360;DHT22;168;48.872;9.226;2022-08-03T03:27:47;19.80;88.90
360;DHT22;168;48.872;9.226;2022-08-03T03:30:14;19.70;89.00
360;DHT22;168;48.872;9.226;2022-08-03T03:32:42;19.70;89.20
360;DHT22;168;48.872;9.226;2022-08-03T03:35:12;19.70;89.30
360;DHT22;168;48.872;9.226;2022-08-03T03:37:41;19.60;89.30
360;DHT22;168;48.872;9.226;2022-08-03T03:40:10;19.60;89.40
360;DHT22;168;48.872;9.226;2022-08-03T03:42:37;19.60;89.40
360;DHT22;168;48.872;9.226;2022-08-03T03:45:06;19.60;89.40
360;DHT22;168;48.872;9.226;2022-08-03T03:47:34;19.60;89.40
360;DHT22;168;48.872;9.226;2022-08-03T03:50:02;19.50;89.50
360;DHT22;168;48.872;9.226;2022-08-03T03:52:31;19.50;89.50
360;DHT22;168;48.872;9.226;2022-08-03T03:54:59;19.60;89.50
360;DHT22;168;48.872;9.226;2022-08-03T03:57:27;19.60;89.50
360;DHT22;168;48.872;9.226;2022-08-03T03:59:54;19.50;89.60
360;DHT22;168;48.872;9.226;2022-08-03T04:02:22;19.40;89.60
360;DHT22;168;48.872;9.226;2022-08-03T04:04:50;19.40;89.70
360;DHT22;168;48.872;9.226;2022-08-03T04:07:43;19.40;89.70
360;DHT22;168;48.872;9.226;2022-08-03T04:10:30;19.40;89.80
360;DHT22;168;48.872;9.226;2022-08-03T04:13:18;19.40;89.80
360;DHT22;168;48.872;9.226;2022-08-03T04:15:47;19.40;89.80
360;DHT22;168;48.872;9.226;2022-08-03T04:18:15;19.40;89.80
360;DHT22;168;48.872;9.226;2022-08-03T04:20:45;19.40;89.90
360;DHT22;168;48.872;9.226;2022-08-03T04:23:16;19.40;89.80
360;DHT22;168;48.872;9.226;2022-08-03T04:25:45;19.40;89.80
360;DHT22;168;48.872;9.226;2022-08-03T04:28:16;19.40;89.80
360;DHT22;168;48.872;9.226;2022-08-03T04:30:46;19.40;89.90
360;DHT22;168;48.872;9.226;2022-08-03T04:33:16;19.40;89.80
360;DHT22;168;48.872;9.226;2022-08-03T04:35:46;19.40;89.80
360;DHT22;168;48.872;9.226;2022-08-03T04:38:17;19.40;89.80
360;DHT22;168;48.872;9.226;2022-08-03T04:40:45;19.50;89.80
360;DHT22;168;48.872;9.226;2022-08-03T04:43:15;19.50;89.80
360;DHT22;168;48.872;9.226;2022-08-03T04:45:46;19.50;89.90
360;DHT22;168;48.872;9.226;2022-08-03T04:48:14;19.60;89.80
360;DHT22;168;48.872;9.226;2022-08-03T04:50:42;19.50;89.80
360;DHT22;168;48.872;9.226;2022-08-03T04:53:10;19.50;89.80
360;DHT22;168;48.872;9.226;2022-08-03T04:55:39;19.60;89.90
360;DHT22;168;48.872;9.226;2022-08-03T04:58:07;19.60;89.80
360;DHT22;168;48.872;9.226;2022-08-03T05:00:34;19.70;89.60
360;DHT22;168;48.872;9.226;2022-08-03T05:03:01;19.80;89.50
360;DHT22;168;48.872;9.226;2022-08-03T05:05:29;19.90;89.30
360;DHT22;168;48.872;9.226;2022-08-03T05:07:56;20.00;89.20
360;DHT22;168;48.872;9.226;2022-08-03T05:10:23;20.10;89.20
360;DHT22;168;48.872;9.226;2022-08-03T05:12:52;20.20;88.90
360;DHT22;168;48.872;9.226;2022-08-03T05:15:20;20.40;88.70
360;DHT22;168;48.872;9.226;2022-08-03T05:17:47;20.40;88.60
360;DHT22;168;48.872;9.226;2022-08-03T05:20:15;20.50;88.50
360;DHT22;168;48.872;9.226;2022-08-03T05:22:42;20.60;88.40
360;DHT22;168;48.872;9.226;2022-08-03T05:25:09;20.70;88.40
360;DHT22;168;48.872;9.226;2022-08-03T05:27:37;20.80;88.20
360;DHT22;168;48.872;9.226;2022-08-03T05:30:07;20.80;88.20
360;DHT22;168;48.872;9.226;2022-08-03T05:32:34;20.90;88.00
360;DHT22;168;48.872;9.226;2022-08-03T05:35:02;21.00;88.00
360;DHT22;168;48.872;9.226;2022-08-03T05:38:09;21.10;88.10
360;DHT22;168;48.872;9.226;2022-08-03T05:40:37;21.20;87.80
360;DHT22;168;48.872;9.226;2022-08-03T05:43:04;21.30;87.50
360;DHT22;168;48.872;9.226;2022-08-03T05:45:33;21.50;87.30
360;DHT22;168;48.872;9.226;2022-08-03T05:48:00;21.60;87.10
360;DHT22;168;48.872;9.226;2022-08-03T05:50:27;21.70;86.80
360;DHT22;168;48.872;9.226;2022-08-03T05:52:55;21.70;86.50
360;DHT22;168;48.872;9.226;2022-08-03T05:55:23;21.80;86.20
360;DHT22;168;48.872;9.226;2022-08-03T05:57:51;21.80;86.00
360;DHT22;168;48.872;9.226;2022-08-03T06:00:18;21.90;85.80
360;DHT22;168;48.872;9.226;2022-08-03T06:02:47;22.00;85.70
360;DHT22;168;48.872;9.226;2022-08-03T06:05:14;22.00;85.70
360;DHT22;168;48.872;9.226;2022-08-03T06:07:42;22.10;85.50
360;DHT22;168;48.872;9.226;2022-08-03T06:10:09;22.20;85.30
360;DHT22;168;48.872;9.226;2022-08-03T06:12:36;22.30;85.40
360;DHT22;168;48.872;9.226;2022-08-03T06:15:07;22.30;85.50
360;DHT22;168;48.872;9.226;2022-08-03T06:17:40;22.40;85.40
360;DHT22;168;48.872;9.226;2022-08-03T06:20:12;22.50;85.40
360;DHT22;168;48.872;9.226;2022-08-03T06:22:39;22.50;85.30
360;DHT22;168;48.872;9.226;2022-08-03T06:25:07;22.70;85.30
360;DHT22;168;48.872;9.226;2022-08-03T06:27:35;22.70;85.20
360;DHT22;168;48.872;9.226;2022-08-03T06:30:06;22.80;85.10
360;DHT22;168;48.872;9.226;2022-08-03T06:32:35;22.90;84.90
360;DHT22;168;48.872;9.226;2022-08-03T06:35:03;23.00;84.60
360;DHT22;168;48.872;9.226;2022-08-03T06:37:41;23.10;84.50
360;DHT22;168;48.872;9.226;2022-08-03T06:40:10;23.20;84.50
360;DHT22;168;48.872;9.226;2022-08-03T06:42:38;23.30;84.30
360;DHT22;168;48.872;9.226;2022-08-03T06:45:07;23.40;84.00
360;DHT22;168;48.872;9.226;2022-08-03T06:47:35;23.50;83.80
360;DHT22;168;48.872;9.226;2022-08-03T06:50:02;23.60;83.40
360;DHT22;168;48.872;9.226;2022-08-03T06:52:31;23.60;83.40
360;DHT22;168;48.872;9.226;2022-08-03T06:54:59;23.80;82.90
360;DHT22;168;48.872;9.226;2022-08-03T06:57:26;23.80;82.60
360;DHT22;168;48.872;9.226;2022-08-03T06:59:53;24.00;82.30
360;DHT22;168;48.872;9.226;2022-08-03T07:02:26;24.10;82.00
360;DHT22;168;48.872;9.226;2022-08-03T07:04:54;24.20;81.60
360;DHT22;168;48.872;9.226;2022-08-03T07:07:22;24.30;81.50
360;DHT22;168;48.872;9.226;2022-08-03T07:09:51;24.40;81.50
360;DHT22;168;48.872;9.226;2022-08-03T07:12:18;24.50;80.80
360;DHT22;168;48.872;9.226;2022-08-03T07:14:46;24.60;80.70
360;DHT22;168;48.872;9.226;2022-08-03T07:17:13;24.70;80.00
360;DHT22;168;48.872;9.226;2022-08-03T07:19:40;24.80;79.70
360;DHT22;168;48.872;9.226;2022-08-03T07:22:08;24.90;79.10
360;DHT22;168;48.872;9.226;2022-08-03T07:24:36;25.00;79.20
360;DHT22;168;48.872;9.226;2022-08-03T07:27:05;25.10;79.00
360;DHT22;168;48.872;9.226;2022-08-03T07:29:33;25.20;78.30
360;DHT22;168;48.872;9.226;2022-08-03T07:32:00;25.40;77.80
360;DHT22;168;48.872;9.226;2022-08-03T07:34:28;25.50;77.20
360;DHT22;168;48.872;9.226;2022-08-03T07:36:55;25.60;76.90
360;DHT22;168;48.872;9.226;2022-08-03T07:39:23;25.70;76.50
360;DHT22;168;48.872;9.226;2022-08-03T07:41:50;25.80;76.50
360;DHT22;168;48.872;9.226;2022-08-03T07:44:20;25.90;76.20
360;DHT22;168;48.872;9.226;2022-08-03T07:46:47;26.00;76.30
360;DHT22;168;48.872;9.226;2022-08-03T07:49:15;26.10;76.40
360;DHT22;168;48.872;9.226;2022-08-03T07:51:43;26.20;76.20
360;DHT22;168;48.872;9.226;2022-08-03T07:54:10;26.40;75.80
360;DHT22;168;48.872;9.226;2022-08-03T07:56:38;26.50;75.60
360;DHT22;168;48.872;9.226;2022-08-03T07:59:05;26.70;74.50
360;DHT22;168;48.872;9.226;2022-08-03T08:01:34;26.80;74.20
360;DHT22;168;48.872;9.226;2022-08-03T08:04:03;26.90;73.70
360;DHT22;168;48.872;9.226;2022-08-03T08:06:30;26.90;73.20
360;DHT22;168;48.872;9.226;2022-08-03T08:08:58;27.00;73.00
360;DHT22;168;48.872;9.226;2022-08-03T08:11:27;27.10;73.10
360;DHT22;168;48.872;9.226;2022-08-03T08:13:54;27.20;72.30
360;DHT22;168;48.872;9.226;2022-08-03T08:16:22;27.30;72.70
360;DHT22;168;48.872;9.226;2022-08-03T08:18:50;27.50;71.90
360;DHT22;168;48.872;9.226;2022-08-03T08:21:18;27.60;72.00
360;DHT22;168;48.872;9.226;2022-08-03T08:23:45;27.60;70.70
360;DHT22;168;48.872;9.226;2022-08-03T08:26:13;27.70;70.40
360;DHT22;168;48.872;9.226;2022-08-03T08:28:40;27.80;70.30
360;DHT22;168;48.872;9.226;2022-08-03T08:31:07;27.80;70.10
360;DHT22;168;48.872;9.226;2022-08-03T08:33:35;28.00;69.60
360;DHT22;168;48.872;9.226;2022-08-03T08:36:04;28.10;69.50
360;DHT22;168;48.872;9.226;2022-08-03T08:38:33;28.30;68.40
360;DHT22;168;48.872;9.226;2022-08-03T08:41:01;28.40;68.00
360;DHT22;168;48.872;9.226;2022-08-03T08:43:29;28.50;67.40
360;DHT22;168;48.872;9.226;2022-08-03T08:45:57;28.50;67.40
360;DHT22;168;48.872;9.226;2022-08-03T08:48:27;28.60;67.50
360;DHT22;168;48.872;9.226;2022-08-03T08:50:56;28.70;67.40
360;DHT22;168;48.872;9.226;2022-08-03T08:53:27;28.80;66.90
360;DHT22;168;48.872;9.226;2022-08-03T08:55:59;28.90;66.10
360;DHT22;168;48.872;9.226;2022-08-03T08:58:35;29.00;65.60
360;DHT22;168;48.872;9.226;2022-08-03T09:01:03;29.10;64.90
360;DHT22;168;48.872;9.226;2022-08-03T09:03:32;29.20;65.40
360;DHT22;168;48.872;9.226;2022-08-03T09:06:00;29.30;64.50
360;DHT22;168;48.872;9.226;2022-08-03T09:08:30;29.50;63.40
360;DHT22;168;48.872;9.226;2022-08-03T09:10:58;29.50;62.30
360;DHT22;168;48.872;9.226;2022-08-03T09:13:25;29.60;62.20
360;DHT22;168;48.872;9.226;2022-08-03T09:16:14;29.70;61.80
360;DHT22;168;48.872;9.226;2022-08-03T09:18:43;29.70;61.80
360;DHT22;168;48.872;9.226;2022-08-03T09:21:16;29.80;62.10
360;DHT22;168;48.872;9.226;2022-08-03T09:23:47;29.90;60.80
360;DHT22;168;48.872;9.226;2022-08-03T09:26:21;30.00;61.00
360;DHT22;168;48.872;9.226;2022-08-03T09:28:57;30.10;61.00
360;DHT22;168;48.872;9.226;2022-08-03T09:31:32;30.20;60.10
360;DHT22;168;48.872;9.226;2022-08-03T09:34:03;30.20;59.60
360;DHT22;168;48.872;9.226;2022-08-03T09:36:39;30.30;59.40
360;DHT22;168;48.872;9.226;2022-08-03T09:39:10;30.30;59.60
360;DHT22;168;48.872;9.226;2022-08-03T09:41:40;30.50;59.50
360;DHT22;168;48.872;9.226;2022-08-03T09:44:11;30.60;59.40
360;DHT22;168;48.872;9.226;2022-08-03T09:46:47;30.70;58.90
360;DHT22;168;48.872;9.226;2022-08-03T09:49:15;30.80;58.40
360;DHT22;168;48.872;9.226;2022-08-03T09:51:43;30.90;58.80
360;DHT22;168;48.872;9.226;2022-08-03T09:54:12;31.00;56.40
360;DHT22;168;48.872;9.226;2022-08-03T09:57:04;31.10;55.60
360;DHT22;168;48.872;9.226;2022-08-03T09:59:32;31.20;55.70
360;DHT22;168;48.872;9.226;2022-08-03T10:02:00;31.20;56.40
360;DHT22;168;48.872;9.226;2022-08-03T10:04:28;31.30;55.60
360;DHT22;168;48.872;9.226;2022-08-03T10:07:04;31.50;55.70
360;DHT22;168;48.872;9.226;2022-08-03T10:09:34;31.50;56.00
360;DHT22;168;48.872;9.226;2022-08-03T10:12:09;31.60;54.90
360;DHT22;168;48.872;9.226;2022-08-03T10:14:39;31.60;55.30
360;DHT22;168;48.872;9.226;2022-08-03T10:17:10;31.80;55.80
360;DHT22;168;48.872;9.226;2022-08-03T10:19:38;32.00;55.80
360;DHT22;168;48.872;9.226;2022-08-03T10:22:09;32.00;55.80
360;DHT22;168;48.872;9.226;2022-08-03T10:24:48;32.10;55.60
360;DHT22;168;48.872;9.226;2022-08-03T10:27:19;32.10;55.80
360;DHT22;168;48.872;9.226;2022-08-03T10:29:52;32.20;54.90
360;DHT22;168;48.872;9.226;2022-08-03T10:32:25;32.30;54.50
360;DHT22;168;48.872;9.226;2022-08-03T10:35:04;32.30;54.60
360;DHT22;168;48.872;9.226;2022-08-03T10:37:36;32.30;55.40
360;DHT22;168;48.872;9.226;2022-08-03T10:40:11;32.30;55.70
360;DHT22;168;48.872;9.226;2022-08-03T10:42:40;32.40;55.10
360;DHT22;168;48.872;9.226;2022-08-03T10:45:14;32.50;54.80
360;DHT22;168;48.872;9.226;2022-08-03T10:47:44;32.50;55.00
360;DHT22;168;48.872;9.226;2022-08-03T10:50:12;32.60;55.20
360;DHT22;168;48.872;9.226;2022-08-03T10:52:54;32.60;54.40
360;DHT22;168;48.872;9.226;2022-08-03T10:55:33;32.60;53.90
360;DHT22;168;48.872;9.226;2022-08-03T10:58:46;32.50;53.90
360;DHT22;168;48.872;9.226;2022-08-03T11:01:15;32.40;54.40
360;DHT22;168;48.872;9.226;2022-08-03T11:04:14;32.40;54.30
360;DHT22;168;48.872;9.226;2022-08-03T11:06:43;32.40;54.50
360;DHT22;168;48.872;9.226;2022-08-03T11:09:15;32.60;54.40
360;DHT22;168;48.872;9.226;2022-08-03T11:11:47;32.70;54.10
360;DHT22;168;48.872;9.226;2022-08-03T11:14:16;32.90;53.90
360;DHT22;168;48.872;9.226;2022-08-03T11:16:46;33.00;52.90
360;DHT22;168;48.872;9.226;2022-08-03T11:19:15;33.10;51.80
360;DHT22;168;48.872;9.226;2022-08-03T11:21:55;33.10;51.70
360;DHT22;168;48.872;9.226;2022-08-03T11:24:59;33.20;52.30
360;DHT22;168;48.872;9.226;2022-08-03T11:27:30;33.30;52.30
360;DHT22;168;48.872;9.226;2022-08-03T11:30:00;33.30;51.20
360;DHT22;168;48.872;9.226;2022-08-03T11:32:50;33.20;51.40
360;DHT22;168;48.872;9.226;2022-08-03T11:35:19;33.30;51.40
360;DHT22;168;48.872;9.226;2022-08-03T11:38:03;33.30;50.90
360;DHT22;168;48.872;9.226;2022-08-03T11:40:33;33.30;51.10
360;DHT22;168;48.872;9.226;2022-08-03T11:43:03;33.30;50.80
360;DHT22;168;48.872;9.226;2022-08-03T11:45:31;33.40;51.10
360;DHT22;168;48.872;9.226;2022-08-03T11:48:03;33.60;51.00
360;DHT22;168;48.872;9.226;2022-08-03T11:50:39;33.60;50.60
360;DHT22;168;48.872;9.226;2022-08-03T11:53:17;33.70;50.20
360;DHT22;168;48.872;9.226;2022-08-03T11:55:47;33.70;49.80
360;DHT22;168;48.872;9.226;2022-08-03T11:58:17;33.60;49.70
360;DHT22;168;48.872;9.226;2022-08-03T12:00:45;33.50;49.80
360;DHT22;168;48.872;9.226;2022-08-03T12:03:14;33.50;50.20
360;DHT22;168;48.872;9.226;2022-08-03T12:05:44;33.50;50.00
360;DHT22;168;48.872;9.226;2022-08-03T12:08:14;33.40;50.40
360;DHT22;168;48.872;9.226;2022-08-03T12:10:47;33.40;50.50
360;DHT22;168;48.872;9.226;2022-08-03T12:13:17;33.40;49.50
360;DHT22;168;48.872;9.226;2022-08-03T12:15:50;33.40;49.70
360;DHT22;168;48.872;9.226;2022-08-03T12:18:20;33.40;49.50
360;DHT22;168;48.872;9.226;2022-08-03T12:20:49;33.40;49.10
360;DHT22;168;48.872;9.226;2022-08-03T12:23:18;33.30;49.90
360;DHT22;168;48.872;9.226;2022-08-03T12:25:47;33.30;51.10
360;DHT22;168;48.872;9.226;2022-08-03T12:28:17;33.50;49.50
360;DHT22;168;48.872;9.226;2022-08-03T12:30:48;33.60;49.90
360;DHT22;168;48.872;9.226;2022-08-03T12:33:18;33.80;48.90
360;DHT22;168;48.872;9.226;2022-08-03T12:35:59;33.90;48.30
360;DHT22;168;48.872;9.226;2022-08-03T12:38:27;34.10;48.30
360;DHT22;168;48.872;9.226;2022-08-03T12:40:56;34.30;47.90
360;DHT22;168;48.872;9.226;2022-08-03T12:43:25;34.50;47.30
360;DHT22;168;48.872;9.226;2022-08-03T12:46:10;34.60;47.30
360;DHT22;168;48.872;9.226;2022-08-03T12:48:56;34.60;46.60
360;DHT22;168;48.872;9.226;2022-08-03T12:51:24;34.60;46.20
360;DHT22;168;48.872;9.226;2022-08-03T12:53:52;34.60;45.90
360;DHT22;168;48.872;9.226;2022-08-03T12:56:20;34.50;46.30
360;DHT22;168;48.872;9.226;2022-08-03T12:58:48;34.40;46.50
360;DHT22;168;48.872;9.226;2022-08-03T13:01:19;34.50;45.60
360;DHT22;168;48.872;9.226;2022-08-03T13:03:50;34.40;46.30
360;DHT22;168;48.872;9.226;2022-08-03T13:06:20;34.30;46.90
360;DHT22;168;48.872;9.226;2022-08-03T13:08:48;34.30;46.30
360;DHT22;168;48.872;9.226;2022-08-03T13:11:20;34.40;46.80
360;DHT22;168;48.872;9.226;2022-08-03T13:13:50;34.50;46.00
360;DHT22;168;48.872;9.226;2022-08-03T13:16:17;34.60;46.20
360;DHT22;168;48.872;9.226;2022-08-03T13:18:47;34.70;46.10
360;DHT22;168;48.872;9.226;2022-08-03T13:21:15;34.80;45.00
360;DHT22;168;48.872;9.226;2022-08-03T13:23:43;34.80;45.00
360;DHT22;168;48.872;9.226;2022-08-03T13:26:17;34.90;44.80
360;DHT22;168;48.872;9.226;2022-08-03T13:28:52;34.90;45.70
360;DHT22;168;48.872;9.226;2022-08-03T13:31:40;35.10;46.20
360;DHT22;168;48.872;9.226;2022-08-03T13:34:49;35.20;47.00
360;DHT22;168;48.872;9.226;2022-08-03T13:37:19;35.40;46.90
360;DHT22;168;48.872;9.226;2022-08-03T13:39:47;35.50;45.60
360;DHT22;168;48.872;9.226;2022-08-03T13:42:14;35.60;45.00
360;DHT22;168;48.872;9.226;2022-08-03T13:44:43;35.70;44.80
360;DHT22;168;48.872;9.226;2022-08-03T13:47:24;35.70;44.00
360;DHT22;168;48.872;9.226;2022-08-03T13:50:12;35.70;43.60
360;DHT22;168;48.872;9.226;2022-08-03T13:52:42;35.50;43.90
360;DHT22;168;48.872;9.226;2022-08-03T13:55:13;35.40;43.60
360;DHT22;168;48.872;9.226;2022-08-03T13:57:41;35.30;44.30
360;DHT22;168;48.872;9.226;2022-08-03T14:00:13;35.20;43.10
360;DHT22;168;48.872;9.226;2022-08-03T14:02:42;35.10;43.80
360;DHT22;168;48.872;9.226;2022-08-03T14:05:09;35.10;44.10
360;DHT22;168;48.872;9.226;2022-08-03T14:07:40;35.20;43.50
360;DHT22;168;48.872;9.226;2022-08-03T14:10:24;35.20;43.80
360;DHT22;168;48.872;9.226;2022-08-03T14:12:56;35.40;44.50
360;DHT22;168;48.872;9.226;2022-08-03T14:15:27;35.80;43.20
360;DHT22;168;48.872;9.226;2022-08-03T14:17:56;36.00;43.50
360;DHT22;168;48.872;9.226;2022-08-03T14:20:24;36.30;43.60
360;DHT22;168;48.872;9.226;2022-08-03T14:22:51;36.70;43.00
360;DHT22;168;48.872;9.226;2022-08-03T14:25:20;37.00;42.50
360;DHT22;168;48.872;9.226;2022-08-03T14:27:51;37.40;41.20
360;DHT22;168;48.872;9.226;2022-08-03T14:30:44;37.60;41.80
360;DHT22;168;48.872;9.226;2022-08-03T14:33:37;37.90;41.30
360;DHT22;168;48.872;9.226;2022-08-03T14:36:13;38.10;40.70
360;DHT22;168;48.872;9.226;2022-08-03T14:38:56;38.30;40.20
360;DHT22;168;48.872;9.226;2022-08-03T14:44:55;38.50;40.00
360;DHT22;168;48.872;9.226;2022-08-03T14:47:27;38.50;40.30
360;DHT22;168;48.872;9.226;2022-08-03T14:49:55;38.30;40.30
360;DHT22;168;48.872;9.226;2022-08-03T14:52:24;38.20;41.10
360;DHT22;168;48.872;9.226;2022-08-03T14:55:09;38.30;41.00
360;DHT22;168;48.872;9.226;2022-08-03T14:57:38;38.60;39.80
360;DHT22;168;48.872;9.226;2022-08-03T15:00:14;38.70;39.80
360;DHT22;168;48.872;9.226;2022-08-03T15:03:03;38.90;39.50
360;DHT22;168;48.872;9.226;2022-08-03T15:05:45;39.00;39.10
360;DHT22;168;48.872;9.226;2022-08-03T15:08:13;39.10;39.30
360;DHT22;168;48.872;9.226;2022-08-03T15:10:40;39.40;39.20
360;DHT22;168;48.872;9.226;2022-08-03T15:13:07;39.60;38.70
360;DHT22;168;48.872;9.226;2022-08-03T15:15:35;39.80;38.80
360;DHT22;168;48.872;9.226;2022-08-03T15:18:05;39.90;39.10
360;DHT22;168;48.872;9.226;2022-08-03T15:20:32;40.10;38.80
360;DHT22;168;48.872;9.226;2022-08-03T15:23:00;40.20;38.50
360;DHT22;168;48.872;9.226;2022-08-03T15:25:27;40.30;38.30
360;DHT22;168;48.872;9.226;2022-08-03T15:27:54;40.40;37.80
360;DHT22;168;48.872;9.226;2022-08-03T15:30:22;40.40;37.90
360;DHT22;168;48.872;9.226;2022-08-03T15:32:49;40.30;38.20
360;DHT22;168;48.872;9.226;2022-08-03T15:35:18;40.30;38.10
360;DHT22;168;48.872;9.226;2022-08-03T15:37:45;40.50;38.00
360;DHT22;168;48.872;9.226;2022-08-03T15:40:13;40.60;37.90
360;DHT22;168;48.872;9.226;2022-08-03T15:42:40;40.80;37.80
360;DHT22;168;48.872;9.226;2022-08-03T15:45:08;41.00;37.90
360;DHT22;168;48.872;9.226;2022-08-03T15:47:36;41.20;37.60
360;DHT22;168;48.872;9.226;2022-08-03T15:50:04;41.30;36.90
360;DHT22;168;48.872;9.226;2022-08-03T15:52:34;41.50;37.20
360;DHT22;168;48.872;9.226;2022-08-03T15:55:01;41.70;36.70
360;DHT22;168;48.872;9.226;2022-08-03T15:57:28;41.70;36.40
360;DHT22;168;48.872;9.226;2022-08-03T15:59:56;41.70;36.20
360;DHT22;168;48.872;9.226;2022-08-03T16:02:23;41.60;36.10
360;DHT22;168;48.872;9.226;2022-08-03T16:04:50;41.50;36.00
360;DHT22;168;48.872;9.226;2022-08-03T16:07:18;41.40;36.50
360;DHT22;168;48.872;9.226;2022-08-03T16:10:08;41.50;36.30
360;DHT22;168;48.872;9.226;2022-08-03T16:12:36;41.70;36.10
360;DHT22;168;48.872;9.226;2022-08-03T16:15:05;41.80;36.30
360;DHT22;168;48.872;9.226;2022-08-03T16:17:32;41.90;36.20
360;DHT22;168;48.872;9.226;2022-08-03T16:20:00;42.20;35.90
360;DHT22;168;48.872;9.226;2022-08-03T16:22:27;42.20;35.60
360;DHT22;168;48.872;9.226;2022-08-03T16:24:56;42.20;35.70
360;DHT22;168;48.872;9.226;2022-08-03T16:27:25;42.30;35.50
360;DHT22;168;48.872;9.226;2022-08-03T16:29:53;42.20;35.70
360;DHT22;168;48.872;9.226;2022-08-03T16:32:20;42.30;35.50
360;DHT22;168;48.872;9.226;2022-08-03T16:34:48;42.40;35.20
360;DHT22;168;48.872;9.226;2022-08-03T16:37:15;42.50;35.00
360;DHT22;168;48.872;9.226;2022-08-03T16:39:43;42.50;35.00
360;DHT22;168;48.872;9.226;2022-08-03T16:42:11;42.40;34.90
360;DHT22;168;48.872;9.226;2022-08-03T16:44:40;42.30;35.20
360;DHT22;168;48.872;9.226;2022-08-03T16:47:08;42.50;35.10
360;DHT22;168;48.872;9.226;2022-08-03T16:49:36;42.60;34.90
360;DHT22;168;48.872;9.226;2022-08-03T16:52:04;42.50;34.90
360;DHT22;168;48.872;9.226;2022-08-03T16:54:31;42.60;34.90
360;DHT22;168;48.872;9.226;2022-08-03T16:56:59;42.60;34.50
360;DHT22;168;48.872;9.226;2022-08-03T16:59:26;42.50;34.90
360;DHT22;168;48.872;9.226;2022-08-03T17:01:55;42.40;34.90